sensor_id;sensor_type;location;lat;lon;timestamp;P1;durP1;ratioP1;P2;durP2;ratioP2
46745;SDS011;32493;50.514;9.678;2023-06-05T00:00:19;2.13;;;1.50;;
46745;SDS011;32493;50.514;9.678;2023-06-05T00:02:27;2.25;;;1.38;;
46745;SDS011;32493;50.514;9.678;2023-06-05T00:04:36;2.80;;;1.42;;
46745;SDS011;32493;50.514;9.678;2023-06-05T00:06:42;5.45;;;1.52;;
46745;SDS011;32493;50.514;9.678;2023-06-05T00:08:48;5.00;;;1.55;;
46745;SDS011;32493;50.514;9.678;2023-06-05T00:10:53;3.72;;;1.70;;
46745;SDS011;32493;50.514;9.678;2023-06-05T00:12:59;2.55;;;1.83;;
46745;SDS011;32493;50.514;9.678;2023-06-05T00:15:07;3.42;;;1.45;;
46745;SDS011;32493;50.514;9.678;2023-06-05T00:17:15;2.42;;;1.55;;
46745;SDS011;32493;50.514;9.678;2023-06-05T00:19:21;3.40;;;1.60;;
46745;SDS011;32493;50.514;9.678;2023-06-05T00:21:29;3.08;;;1.55;;
46745;SDS011;32493;50.514;9.678;2023-06-05T00:23:35;4.22;;;1.40;;
46745;SDS011;32493;50.514;9.678;2023-06-05T00:25:41;3.13;;;1.48;;
46745;SDS011;32493;50.514;9.678;2023-06-05T00:27:48;3.17;;;1.50;;
46745;SDS011;32493;50.514;9.678;2023-06-05T00:29:53;4.90;;;1.90;;
46745;SDS011;32493;50.514;9.678;2023-06-05T00:32:01;2.60;;;1.52;;
46745;SDS011;32493;50.514;9.678;2023-06-05T00:34:08;3.25;;;1.35;;
46745;SDS011;32493;50.514;9.678;2023-06-05T00:36:17;5.95;;;1.77;;
46745;SDS011;32493;50.514;9.678;2023-06-05T00:38:29;2.50;;;1.58;;
46745;SDS011;32493;50.514;9.678;2023-06-05T00:40:37;3.35;;;1.77;;
46745;SDS011;32493;50.514;9.678;2023-06-05T00:42:43;3.95;;;1.80;;
46745;SDS011;32493;50.514;9.678;2023-06-05T00:44:49;5.57;;;1.65;;
46745;SDS011;32493;50.514;9.678;2023-06-05T00:46:55;4.05;;;1.33;;
46745;SDS011;32493;50.514;9.678;2023-06-05T00:49:02;5.32;;;1.92;;
46745;SDS011;32493;50.514;9.678;2023-06-05T00:51:08;5.10;;;1.58;;
46745;SDS011;32493;50.514;9.678;2023-06-05T00:53:19;3.78;;;1.50;;
46745;SDS011;32493;50.514;9.678;2023-06-05T00:55:38;3.65;;;1.65;;
46745;SDS011;32493;50.514;9.678;2023-06-05T00:57:43;3.03;;;1.50;;
46745;SDS011;32493;50.514;9.678;2023-06-05T00:59:49;3.97;;;1.50;;
46745;SDS011;32493;50.514;9.678;2023-06-05T01:01:56;3.35;;;1.60;;
46745;SDS011;32493;50.514;9.678;2023-06-05T01:04:04;2.85;;;1.65;;
46745;SDS011;32493;50.514;9.678;2023-06-05T01:06:09;3.50;;;1.52;;
46745;SDS011;32493;50.514;9.678;2023-06-05T01:08:20;4.65;;;1.58;;
46745;SDS011;32493;50.514;9.678;2023-06-05T01:10:27;3.63;;;1.63;;
46745;SDS011;32493;50.514;9.678;2023-06-05T01:12:36;2.53;;;1.60;;
46745;SDS011;32493;50.514;9.678;2023-06-05T01:14:46;3.95;;;1.67;;
46745;SDS011;32493;50.514;9.678;2023-06-05T01:16:54;3.38;;;1.67;;
46745;SDS011;32493;50.514;9.678;2023-06-05T01:19:04;2.25;;;1.60;;
46745;SDS011;32493;50.514;9.678;2023-06-05T01:21:12;4.10;;;1.67;;
46745;SDS011;32493;50.514;9.678;2023-06-05T01:23:20;4.30;;;1.70;;
46745;SDS011;32493;50.514;9.678;2023-06-05T01:25:29;3.08;;;1.88;;
46745;SDS011;32493;50.514;9.678;2023-06-05T01:27:41;2.92;;;1.60;;
46745;SDS011;32493;50.514;9.678;2023-06-05T01:29:53;3.13;;;1.73;;
46745;SDS011;32493;50.514;9.678;2023-06-05T01:32:11;5.78;;;1.77;;
46745;SDS011;32493;50.514;9.678;2023-06-05T01:34:20;4.13;;;1.60;;
46745;SDS011;32493;50.514;9.678;2023-06-05T01:38:41;3.60;;;1.42;;
46745;SDS011;32493;50.514;9.678;2023-06-05T01:40:49;4.68;;;1.67;;
46745;SDS011;32493;50.514;9.678;2023-06-05T01:42:56;2.17;;;1.55;;
46745;SDS011;32493;50.514;9.678;2023-06-05T01:45:03;2.60;;;1.58;;
46745;SDS011;32493;50.514;9.678;2023-06-05T01:47:11;2.92;;;1.60;;
46745;SDS011;32493;50.514;9.678;2023-06-05T01:49:19;3.50;;;2.15;;
46745;SDS011;32493;50.514;9.678;2023-06-05T01:51:25;3.63;;;1.58;;
46745;SDS011;32493;50.514;9.678;2023-06-05T01:53:30;4.45;;;1.70;;
46745;SDS011;32493;50.514;9.678;2023-06-05T01:55:39;4.57;;;1.65;;
46745;SDS011;32493;50.514;9.678;2023-06-05T01:57:45;5.97;;;1.88;;
46745;SDS011;32493;50.514;9.678;2023-06-05T01:59:52;3.88;;;1.52;;
46745;SDS011;32493;50.514;9.678;2023-06-05T02:01:59;3.25;;;1.70;;
46745;SDS011;32493;50.514;9.678;2023-06-05T02:04:05;4.47;;;2.10;;
46745;SDS011;32493;50.514;9.678;2023-06-05T02:06:13;4.60;;;1.77;;
46745;SDS011;32493;50.514;9.678;2023-06-05T02:08:20;5.07;;;1.40;;
46745;SDS011;32493;50.514;9.678;2023-06-05T02:10:26;3.92;;;1.63;;
46745;SDS011;32493;50.514;9.678;2023-06-05T02:12:35;3.42;;;1.70;;
46745;SDS011;32493;50.514;9.678;2023-06-05T02:14:43;3.40;;;1.70;;
46745;SDS011;32493;50.514;9.678;2023-06-05T02:16:50;5.47;;;1.52;;
46745;SDS011;32493;50.514;9.678;2023-06-05T02:18:56;2.88;;;1.75;;
46745;SDS011;32493;50.514;9.678;2023-06-05T02:21:05;3.22;;;1.60;;
46745;SDS011;32493;50.514;9.678;2023-06-05T02:23:12;4.13;;;1.60;;
46745;SDS011;32493;50.514;9.678;2023-06-05T02:25:19;4.65;;;1.90;;
46745;SDS011;32493;50.514;9.678;2023-06-05T02:27:28;4.13;;;1.40;;
46745;SDS011;32493;50.514;9.678;2023-06-05T02:29:36;2.17;;;1.42;;
46745;SDS011;32493;50.514;9.678;2023-06-05T02:31:42;4.55;;;1.80;;
46745;SDS011;32493;50.514;9.678;2023-06-05T02:33:48;5.65;;;1.83;;
46745;SDS011;32493;50.514;9.678;2023-06-05T02:35:54;3.65;;;1.75;;
46745;SDS011;32493;50.514;9.678;2023-06-05T02:38:00;4.05;;;1.60;;
46745;SDS011;32493;50.514;9.678;2023-06-05T02:40:08;3.95;;;1.70;;
46745;SDS011;32493;50.514;9.678;2023-06-05T02:42:14;4.20;;;1.75;;
46745;SDS011;32493;50.514;9.678;2023-06-05T02:44:21;3.42;;;1.58;;
46745;SDS011;32493;50.514;9.678;2023-06-05T02:46:29;5.15;;;2.00;;
46745;SDS011;32493;50.514;9.678;2023-06-05T02:48:35;5.25;;;1.88;;
46745;SDS011;32493;50.514;9.678;2023-06-05T02:50:43;9.63;;;2.53;;
46745;SDS011;32493;50.514;9.678;2023-06-05T02:52:51;4.15;;;1.70;;
46745;SDS011;32493;50.514;9.678;2023-06-05T02:55:03;4.43;;;2.15;;
46745;SDS011;32493;50.514;9.678;2023-06-05T02:57:15;4.18;;;1.73;;
46745;SDS011;32493;50.514;9.678;2023-06-05T02:59:22;6.00;;;1.65;;
46745;SDS011;32493;50.514;9.678;2023-06-05T03:01:33;3.58;;;1.77;;
46745;SDS011;32493;50.514;9.678;2023-06-05T03:03:42;5.35;;;2.20;;
46745;SDS011;32493;50.514;9.678;2023-06-05T03:05:57;2.85;;;1.60;;
46745;SDS011;32493;50.514;9.678;2023-06-05T03:08:08;3.70;;;1.55;;
46745;SDS011;32493;50.514;9.678;2023-06-05T03:10:14;4.93;;;1.60;;
46745;SDS011;32493;50.514;9.678;2023-06-05T03:12:19;3.28;;;1.80;;
46745;SDS011;32493;50.514;9.678;2023-06-05T03:14:25;2.75;;;1.88;;
46745;SDS011;32493;50.514;9.678;2023-06-05T03:16:35;3.35;;;1.90;;
46745;SDS011;32493;50.514;9.678;2023-06-05T03:18:46;5.43;;;2.55;;
46745;SDS011;32493;50.514;9.678;2023-06-05T03:20:54;6.10;;;2.75;;
46745;SDS011;32493;50.514;9.678;2023-06-05T03:23:02;6.13;;;3.08;;
46745;SDS011;32493;50.514;9.678;2023-06-05T03:25:11;9.70;;;2.80;;
46745;SDS011;32493;50.514;9.678;2023-06-05T03:27:20;6.82;;;2.53;;
46745;SDS011;32493;50.514;9.678;2023-06-05T03:29:28;7.13;;;2.35;;
46745;SDS011;32493;50.514;9.678;2023-06-05T03:31:37;6.80;;;2.60;;
46745;SDS011;32493;50.514;9.678;2023-06-05T03:33:45;4.00;;;2.22;;
46745;SDS011;32493;50.514;9.678;2023-06-05T03:35:52;8.98;;;3.05;;
46745;SDS011;32493;50.514;9.678;2023-06-05T03:38:00;4.07;;;2.10;;
46745;SDS011;32493;50.514;9.678;2023-06-05T03:40:07;4.47;;;2.47;;
46745;SDS011;32493;50.514;9.678;2023-06-05T03:42:16;3.55;;;2.00;;
46745;SDS011;32493;50.514;9.678;2023-06-05T03:44:22;4.57;;;2.08;;
46745;SDS011;32493;50.514;9.678;2023-06-05T03:46:29;3.20;;;2.00;;
46745;SDS011;32493;50.514;9.678;2023-06-05T03:48:38;3.53;;;2.10;;
46745;SDS011;32493;50.514;9.678;2023-06-05T03:50:46;3.13;;;1.92;;
46745;SDS011;32493;50.514;9.678;2023-06-05T03:52:55;3.92;;;1.73;;
46745;SDS011;32493;50.514;9.678;2023-06-05T03:55:05;7.45;;;2.58;;
46745;SDS011;32493;50.514;9.678;2023-06-05T03:57:14;5.15;;;2.35;;
46745;SDS011;32493;50.514;9.678;2023-06-05T03:59:23;4.78;;;3.13;;
46745;SDS011;32493;50.514;9.678;2023-06-05T04:01:34;6.85;;;2.63;;
46745;SDS011;32493;50.514;9.678;2023-06-05T04:03:44;4.35;;;2.20;;
46745;SDS011;32493;50.514;9.678;2023-06-05T04:05:50;5.30;;;2.40;;
46745;SDS011;32493;50.514;9.678;2023-06-05T04:07:56;6.78;;;2.33;;
46745;SDS011;32493;50.514;9.678;2023-06-05T04:10:02;5.32;;;2.33;;
46745;SDS011;32493;50.514;9.678;2023-06-05T04:12:09;6.03;;;2.67;;
46745;SDS011;32493;50.514;9.678;2023-06-05T04:14:18;5.72;;;2.55;;
46745;SDS011;32493;50.514;9.678;2023-06-05T04:16:24;5.10;;;2.42;;
46745;SDS011;32493;50.514;9.678;2023-06-05T04:18:30;4.60;;;2.20;;
46745;SDS011;32493;50.514;9.678;2023-06-05T04:20:41;5.82;;;1.98;;
46745;SDS011;32493;50.514;9.678;2023-06-05T04:22:46;5.00;;;2.40;;
46745;SDS011;32493;50.514;9.678;2023-06-05T04:24:52;6.90;;;2.25;;
46745;SDS011;32493;50.514;9.678;2023-06-05T04:26:58;3.50;;;2.10;;
46745;SDS011;32493;50.514;9.678;2023-06-05T04:29:05;5.65;;;2.33;;
46745;SDS011;32493;50.514;9.678;2023-06-05T04:31:15;4.40;;;2.45;;
46745;SDS011;32493;50.514;9.678;2023-06-05T04:33:21;5.57;;;2.45;;
46745;SDS011;32493;50.514;9.678;2023-06-05T04:35:27;16.45;;;2.88;;
46745;SDS011;32493;50.514;9.678;2023-06-05T04:37:37;13.65;;;2.40;;
46745;SDS011;32493;50.514;9.678;2023-06-05T04:39:43;6.05;;;2.45;;
46745;SDS011;32493;50.514;9.678;2023-06-05T04:41:48;7.43;;;2.42;;
46745;SDS011;32493;50.514;9.678;2023-06-05T04:44:19;15.18;;;2.65;;
46745;SDS011;32493;50.514;9.678;2023-06-05T04:46:34;4.22;;;2.22;;
46745;SDS011;32493;50.514;9.678;2023-06-05T04:48:41;8.07;;;2.38;;
46745;SDS011;32493;50.514;9.678;2023-06-05T04:50:47;9.45;;;2.28;;
46745;SDS011;32493;50.514;9.678;2023-06-05T04:55:05;10.73;;;2.15;;
46745;SDS011;32493;50.514;9.678;2023-06-05T04:57:11;7.30;;;2.80;;
46745;SDS011;32493;50.514;9.678;2023-06-05T04:59:21;5.78;;;2.17;;
46745;SDS011;32493;50.514;9.678;2023-06-05T05:01:27;5.80;;;1.98;;
46745;SDS011;32493;50.514;9.678;2023-06-05T05:03:34;6.47;;;1.70;;
46745;SDS011;32493;50.514;9.678;2023-06-05T05:05:40;9.40;;;2.58;;
46745;SDS011;32493;50.514;9.678;2023-06-05T05:07:45;6.10;;;2.33;;
46745;SDS011;32493;50.514;9.678;2023-06-05T05:09:58;7.70;;;2.30;;
46745;SDS011;32493;50.514;9.678;2023-06-05T05:12:06;9.68;;;2.63;;
46745;SDS011;32493;50.514;9.678;2023-06-05T05:14:12;6.93;;;2.40;;
46745;SDS011;32493;50.514;9.678;2023-06-05T05:16:19;4.80;;;2.03;;
46745;SDS011;32493;50.514;9.678;2023-06-05T05:18:28;4.43;;;2.42;;
46745;SDS011;32493;50.514;9.678;2023-06-05T05:20:34;5.10;;;2.35;;
46745;SDS011;32493;50.514;9.678;2023-06-05T05:22:41;3.58;;;2.08;;
46745;SDS011;32493;50.514;9.678;2023-06-05T05:24:48;5.85;;;2.20;;
46745;SDS011;32493;50.514;9.678;2023-06-05T05:27:00;3.90;;;2.03;;
46745;SDS011;32493;50.514;9.678;2023-06-05T05:29:09;6.07;;;2.00;;
46745;SDS011;32493;50.514;9.678;2023-06-05T05:31:14;8.15;;;2.10;;
46745;SDS011;32493;50.514;9.678;2023-06-05T05:33:21;6.70;;;2.47;;
46745;SDS011;32493;50.514;9.678;2023-06-05T05:35:27;8.10;;;2.33;;
46745;SDS011;32493;50.514;9.678;2023-06-05T05:37:34;5.30;;;2.17;;
46745;SDS011;32493;50.514;9.678;2023-06-05T05:39:40;5.25;;;2.10;;
46745;SDS011;32493;50.514;9.678;2023-06-05T05:41:45;5.50;;;2.08;;
46745;SDS011;32493;50.514;9.678;2023-06-05T05:43:54;5.25;;;2.03;;
46745;SDS011;32493;50.514;9.678;2023-06-05T05:46:00;2.97;;;2.08;;
46745;SDS011;32493;50.514;9.678;2023-06-05T05:48:08;5.53;;;2.10;;
46745;SDS011;32493;50.514;9.678;2023-06-05T05:50:13;4.57;;;1.70;;
46745;SDS011;32493;50.514;9.678;2023-06-05T05:52:19;6.93;;;2.17;;
46745;SDS011;32493;50.514;9.678;2023-06-05T05:54:24;6.40;;;2.05;;
46745;SDS011;32493;50.514;9.678;2023-06-05T05:56:30;5.55;;;2.10;;
46745;SDS011;32493;50.514;9.678;2023-06-05T05:58:38;7.72;;;2.58;;
46745;SDS011;32493;50.514;9.678;2023-06-05T06:00:47;5.70;;;2.00;;
46745;SDS011;32493;50.514;9.678;2023-06-05T06:02:53;6.10;;;2.30;;
46745;SDS011;32493;50.514;9.678;2023-06-05T06:04:58;3.90;;;2.40;;
46745;SDS011;32493;50.514;9.678;2023-06-05T06:07:07;5.80;;;2.10;;
46745;SDS011;32493;50.514;9.678;2023-06-05T06:09:14;4.80;;;1.92;;
46745;SDS011;32493;50.514;9.678;2023-06-05T06:11:20;2.70;;;1.80;;
46745;SDS011;32493;50.514;9.678;2023-06-05T06:13:28;8.85;;;2.00;;
46745;SDS011;32493;50.514;9.678;2023-06-05T06:15:34;3.05;;;1.83;;
46745;SDS011;32493;50.514;9.678;2023-06-05T06:17:43;6.45;;;1.90;;
46745;SDS011;32493;50.514;9.678;2023-06-05T06:19:49;6.65;;;2.33;;
46745;SDS011;32493;50.514;9.678;2023-06-05T06:21:57;2.78;;;1.80;;
46745;SDS011;32493;50.514;9.678;2023-06-05T06:24:05;4.55;;;2.10;;
46745;SDS011;32493;50.514;9.678;2023-06-05T06:26:12;4.13;;;1.95;;
46745;SDS011;32493;50.514;9.678;2023-06-05T06:30:25;4.32;;;2.50;;
46745;SDS011;32493;50.514;9.678;2023-06-05T06:32:33;3.63;;;1.92;;
46745;SDS011;32493;50.514;9.678;2023-06-05T06:34:41;7.43;;;1.83;;
46745;SDS011;32493;50.514;9.678;2023-06-05T06:36:48;3.33;;;1.75;;
46745;SDS011;32493;50.514;9.678;2023-06-05T06:38:54;10.27;;;1.98;;
46745;SDS011;32493;50.514;9.678;2023-06-05T06:41:01;3.33;;;1.73;;
46745;SDS011;32493;50.514;9.678;2023-06-05T06:43:07;3.15;;;1.67;;
46745;SDS011;32493;50.514;9.678;2023-06-05T06:45:18;5.88;;;1.75;;
46745;SDS011;32493;50.514;9.678;2023-06-05T06:47:24;4.65;;;1.80;;
46745;SDS011;32493;50.514;9.678;2023-06-05T06:49:33;4.05;;;1.92;;
46745;SDS011;32493;50.514;9.678;2023-06-05T06:51:41;4.57;;;1.92;;
46745;SDS011;32493;50.514;9.678;2023-06-05T06:53:47;6.05;;;2.38;;
46745;SDS011;32493;50.514;9.678;2023-06-05T06:55:56;6.75;;;2.30;;
46745;SDS011;32493;50.514;9.678;2023-06-05T06:58:03;5.25;;;1.77;;
46745;SDS011;32493;50.514;9.678;2023-06-05T07:00:09;2.58;;;1.90;;
46745;SDS011;32493;50.514;9.678;2023-06-05T07:02:16;7.47;;;1.70;;
46745;SDS011;32493;50.514;9.678;2023-06-05T07:04:24;10.90;;;2.08;;
46745;SDS011;32493;50.514;9.678;2023-06-05T07:06:29;5.40;;;1.90;;
46745;SDS011;32493;50.514;9.678;2023-06-05T07:08:40;4.88;;;2.08;;
46745;SDS011;32493;50.514;9.678;2023-06-05T07:10:46;3.63;;;1.85;;
46745;SDS011;32493;50.514;9.678;2023-06-05T07:12:52;4.53;;;1.85;;
46745;SDS011;32493;50.514;9.678;2023-06-05T07:14:57;5.03;;;1.90;;
46745;SDS011;32493;50.514;9.678;2023-06-05T07:17:06;2.92;;;1.88;;
46745;SDS011;32493;50.514;9.678;2023-06-05T07:19:13;3.53;;;1.90;;
46745;SDS011;32493;50.514;9.678;2023-06-05T07:21:19;6.40;;;1.92;;
46745;SDS011;32493;50.514;9.678;2023-06-05T07:23:25;5.68;;;2.20;;
46745;SDS011;32493;50.514;9.678;2023-06-05T07:25:33;3.97;;;1.80;;
46745;SDS011;32493;50.514;9.678;2023-06-05T07:27:39;5.22;;;1.90;;
46745;SDS011;32493;50.514;9.678;2023-06-05T07:29:46;3.17;;;1.80;;
46745;SDS011;32493;50.514;9.678;2023-06-05T07:31:55;4.55;;;1.90;;
46745;SDS011;32493;50.514;9.678;2023-06-05T07:34:02;4.53;;;1.98;;
46745;SDS011;32493;50.514;9.678;2023-06-05T07:36:09;5.55;;;1.45;;
46745;SDS011;32493;50.514;9.678;2023-06-05T07:38:15;5.70;;;1.63;;
46745;SDS011;32493;50.514;9.678;2023-06-05T07:40:21;3.70;;;1.85;;
46745;SDS011;32493;50.514;9.678;2023-06-05T07:42:30;5.13;;;1.70;;
46745;SDS011;32493;50.514;9.678;2023-06-05T07:44:36;6.53;;;1.77;;
46745;SDS011;32493;50.514;9.678;2023-06-05T07:46:45;6.00;;;2.58;;
46745;SDS011;32493;50.514;9.678;2023-06-05T07:48:51;6.43;;;1.75;;
46745;SDS011;32493;50.514;9.678;2023-06-05T07:50:57;4.07;;;1.90;;
46745;SDS011;32493;50.514;9.678;2023-06-05T07:53:05;8.23;;;2.03;;
46745;SDS011;32493;50.514;9.678;2023-06-05T07:55:11;3.47;;;1.60;;
46745;SDS011;32493;50.514;9.678;2023-06-05T07:57:17;5.90;;;1.67;;
46745;SDS011;32493;50.514;9.678;2023-06-05T07:59:28;5.32;;;1.45;;
46745;SDS011;32493;50.514;9.678;2023-06-05T08:01:34;6.78;;;1.90;;
46745;SDS011;32493;50.514;9.678;2023-06-05T08:03:40;5.05;;;1.90;;
46745;SDS011;32493;50.514;9.678;2023-06-05T08:07:54;11.18;;;1.88;;
46745;SDS011;32493;50.514;9.678;2023-06-05T08:09:59;5.88;;;1.92;;
46745;SDS011;32493;50.514;9.678;2023-06-05T08:12:07;6.03;;;2.10;;
46745;SDS011;32493;50.514;9.678;2023-06-05T08:14:13;3.53;;;1.60;;
46745;SDS011;32493;50.514;9.678;2023-06-05T08:16:23;7.00;;;1.52;;
46745;SDS011;32493;50.514;9.678;2023-06-05T08:18:34;3.83;;;1.60;;
46745;SDS011;32493;50.514;9.678;2023-06-05T08:20:40;2.03;;;1.27;;
46745;SDS011;32493;50.514;9.678;2023-06-05T08:22:46;4.75;;;1.77;;
46745;SDS011;32493;50.514;9.678;2023-06-05T08:24:55;4.35;;;1.58;;
46745;SDS011;32493;50.514;9.678;2023-06-05T08:27:03;4.75;;;1.90;;
46745;SDS011;32493;50.514;9.678;2023-06-05T08:29:10;9.23;;;1.70;;
46745;SDS011;32493;50.514;9.678;2023-06-05T08:31:17;5.05;;;2.10;;
46745;SDS011;32493;50.514;9.678;2023-06-05T08:33:29;3.28;;;1.58;;
46745;SDS011;32493;50.514;9.678;2023-06-05T08:35:35;2.63;;;1.73;;
46745;SDS011;32493;50.514;9.678;2023-06-05T08:37:41;3.42;;;1.40;;
46745;SDS011;32493;50.514;9.678;2023-06-05T08:39:47;5.22;;;1.77;;
46745;SDS011;32493;50.514;9.678;2023-06-05T08:42:02;3.95;;;1.73;;
46745;SDS011;32493;50.514;9.678;2023-06-05T08:44:12;5.43;;;1.83;;
46745;SDS011;32493;50.514;9.678;2023-06-05T08:46:20;3.72;;;1.88;;
46745;SDS011;32493;50.514;9.678;2023-06-05T08:48:36;4.45;;;1.70;;
46745;SDS011;32493;50.514;9.678;2023-06-05T08:50:46;7.85;;;2.22;;
46745;SDS011;32493;50.514;9.678;2023-06-05T08:52:53;3.25;;;1.70;;
46745;SDS011;32493;50.514;9.678;2023-06-05T08:55:04;6.30;;;1.90;;
46745;SDS011;32493;50.514;9.678;2023-06-05T08:57:27;8.32;;;1.60;;
46745;SDS011;32493;50.514;9.678;2023-06-05T08:59:38;2.58;;;1.52;;
46745;SDS011;32493;50.514;9.678;2023-06-05T09:01:46;3.03;;;2.05;;
46745;SDS011;32493;50.514;9.678;2023-06-05T09:03:54;4.50;;;1.70;;
46745;SDS011;32493;50.514;9.678;2023-06-05T09:06:03;6.32;;;1.58;;
46745;SDS011;32493;50.514;9.678;2023-06-05T09:08:09;4.57;;;1.27;;
46745;SDS011;32493;50.514;9.678;2023-06-05T09:10:21;2.60;;;1.35;;
46745;SDS011;32493;50.514;9.678;2023-06-05T09:12:28;4.47;;;1.45;;
46745;SDS011;32493;50.514;9.678;2023-06-05T09:14:34;4.22;;;1.60;;
46745;SDS011;32493;50.514;9.678;2023-06-05T09:16:42;4.35;;;1.60;;
46745;SDS011;32493;50.514;9.678;2023-06-05T09:18:52;2.70;;;1.52;;
46745;SDS011;32493;50.514;9.678;2023-06-05T09:21:02;3.40;;;1.42;;
46745;SDS011;32493;50.514;9.678;2023-06-05T09:23:20;4.30;;;1.50;;
46745;SDS011;32493;50.514;9.678;2023-06-05T09:25:43;4.90;;;1.70;;
46745;SDS011;32493;50.514;9.678;2023-06-05T09:28:06;3.10;;;1.52;;
46745;SDS011;32493;50.514;9.678;2023-06-05T09:30:13;4.00;;;1.50;;
46745;SDS011;32493;50.514;9.678;2023-06-05T09:32:18;2.08;;;1.50;;
46745;SDS011;32493;50.514;9.678;2023-06-05T09:34:30;5.38;;;1.73;;
46745;SDS011;32493;50.514;9.678;2023-06-05T09:36:43;2.08;;;1.30;;
46745;SDS011;32493;50.514;9.678;2023-06-05T09:38:49;2.58;;;1.83;;
46745;SDS011;32493;50.514;9.678;2023-06-05T09:41:00;3.33;;;1.63;;
46745;SDS011;32493;50.514;9.678;2023-06-05T09:43:12;4.90;;;1.50;;
46745;SDS011;32493;50.514;9.678;2023-06-05T09:45:20;4.13;;;1.50;;
46745;SDS011;32493;50.514;9.678;2023-06-05T09:47:52;4.97;;;1.48;;
46745;SDS011;32493;50.514;9.678;2023-06-05T09:50:23;4.57;;;1.65;;
46745;SDS011;32493;50.514;9.678;2023-06-05T09:52:33;3.28;;;1.90;;
46745;SDS011;32493;50.514;9.678;2023-06-05T09:54:43;6.40;;;1.58;;
46745;SDS011;32493;50.514;9.678;2023-06-05T09:56:50;3.55;;;1.65;;
46745;SDS011;32493;50.514;9.678;2023-06-05T09:59:00;6.78;;;1.92;;
46745;SDS011;32493;50.514;9.678;2023-06-05T10:01:09;3.40;;;1.42;;
46745;SDS011;32493;50.514;9.678;2023-06-05T10:03:17;2.80;;;1.55;;
46745;SDS011;32493;50.514;9.678;2023-06-05T10:05:29;3.80;;;1.52;;
46745;SDS011;32493;50.514;9.678;2023-06-05T10:07:38;3.17;;;1.70;;
46745;SDS011;32493;50.514;9.678;2023-06-05T10:11:53;2.38;;;1.60;;
46745;SDS011;32493;50.514;9.678;2023-06-05T10:14:02;5.88;;;1.63;;
46745;SDS011;32493;50.514;9.678;2023-06-05T10:16:09;7.13;;;1.40;;
46745;SDS011;32493;50.514;9.678;2023-06-05T10:18:27;3.70;;;1.80;;
46745;SDS011;32493;50.514;9.678;2023-06-05T10:20:36;2.47;;;1.52;;
46745;SDS011;32493;50.514;9.678;2023-06-05T10:22:43;2.28;;;1.38;;
46745;SDS011;32493;50.514;9.678;2023-06-05T10:24:54;2.92;;;1.55;;
46745;SDS011;32493;50.514;9.678;2023-06-05T10:27:19;4.20;;;1.70;;
46745;SDS011;32493;50.514;9.678;2023-06-05T10:32:32;7.63;;;2.17;;
46745;SDS011;32493;50.514;9.678;2023-06-05T10:34:48;2.60;;;1.77;;
46745;SDS011;32493;50.514;9.678;2023-06-05T10:39:41;4.05;;;1.60;;
46745;SDS011;32493;50.514;9.678;2023-06-05T10:41:50;2.05;;;1.27;;
46745;SDS011;32493;50.514;9.678;2023-06-05T10:43:56;4.38;;;1.35;;
46745;SDS011;32493;50.514;9.678;2023-06-05T10:51:31;3.10;;;1.90;;
46745;SDS011;32493;50.514;9.678;2023-06-05T10:53:44;6.35;;;2.03;;
46745;SDS011;32493;50.514;9.678;2023-06-05T10:55:55;3.13;;;1.60;;
46745;SDS011;32493;50.514;9.678;2023-06-05T10:58:07;1.77;;;1.42;;
46745;SDS011;32493;50.514;9.678;2023-06-05T11:00:18;1.70;;;1.60;;
46745;SDS011;32493;50.514;9.678;2023-06-05T11:02:24;3.92;;;1.67;;
46745;SDS011;32493;50.514;9.678;2023-06-05T11:04:47;4.20;;;1.52;;
46745;SDS011;32493;50.514;9.678;2023-06-05T11:07:15;3.80;;;1.45;;
46745;SDS011;32493;50.514;9.678;2023-06-05T11:09:24;2.80;;;1.50;;
46745;SDS011;32493;50.514;9.678;2023-06-05T11:11:30;3.83;;;1.75;;
46745;SDS011;32493;50.514;9.678;2023-06-05T11:14:06;4.57;;;2.00;;
46745;SDS011;32493;50.514;9.678;2023-06-05T11:16:24;4.55;;;1.58;;
46745;SDS011;32493;50.514;9.678;2023-06-05T11:18:34;2.90;;;1.65;;
46745;SDS011;32493;50.514;9.678;2023-06-05T11:20:51;3.20;;;1.75;;
46745;SDS011;32493;50.514;9.678;2023-06-05T11:25:27;3.42;;;1.65;;
46745;SDS011;32493;50.514;9.678;2023-06-05T11:27:41;3.28;;;1.45;;
46745;SDS011;32493;50.514;9.678;2023-06-05T11:29:48;2.35;;;1.70;;
46745;SDS011;32493;50.514;9.678;2023-06-05T11:31:55;4.30;;;1.70;;
46745;SDS011;32493;50.514;9.678;2023-06-05T11:34:02;3.90;;;1.80;;
46745;SDS011;32493;50.514;9.678;2023-06-05T11:36:26;1.92;;;1.60;;
46745;SDS011;32493;50.514;9.678;2023-06-05T11:38:34;4.28;;;1.70;;
46745;SDS011;32493;50.514;9.678;2023-06-05T11:40:43;5.63;;;1.45;;
46745;SDS011;32493;50.514;9.678;2023-06-05T11:42:49;5.88;;;1.80;;
46745;SDS011;32493;50.514;9.678;2023-06-05T11:44:56;3.05;;;1.70;;
46745;SDS011;32493;50.514;9.678;2023-06-05T11:47:07;3.75;;;1.58;;
46745;SDS011;32493;50.514;9.678;2023-06-05T11:49:31;3.03;;;1.52;;
46745;SDS011;32493;50.514;9.678;2023-06-05T11:51:37;3.70;;;1.65;;
46745;SDS011;32493;50.514;9.678;2023-06-05T11:53:45;4.45;;;2.15;;
46745;SDS011;32493;50.514;9.678;2023-06-05T11:55:54;7.30;;;1.88;;
46745;SDS011;32493;50.514;9.678;2023-06-05T11:58:12;3.90;;;1.85;;
46745;SDS011;32493;50.514;9.678;2023-06-05T12:00:28;3.15;;;1.52;;
46745;SDS011;32493;50.514;9.678;2023-06-05T12:02:33;3.60;;;1.50;;
46745;SDS011;32493;50.514;9.678;2023-06-05T12:04:40;3.53;;;1.85;;
46745;SDS011;32493;50.514;9.678;2023-06-05T12:06:49;4.80;;;1.60;;
46745;SDS011;32493;50.514;9.678;2023-06-05T12:09:08;2.40;;;1.70;;
46745;SDS011;32493;50.514;9.678;2023-06-05T12:11:23;2.20;;;1.40;;
46745;SDS011;32493;50.514;9.678;2023-06-05T12:15:57;3.78;;;1.63;;
46745;SDS011;32493;50.514;9.678;2023-06-05T12:18:03;2.10;;;1.73;;
46745;SDS011;32493;50.514;9.678;2023-06-05T12:20:10;3.13;;;1.90;;
46745;SDS011;32493;50.514;9.678;2023-06-05T12:22:16;6.40;;;1.92;;
46745;SDS011;32493;50.514;9.678;2023-06-05T12:24:25;3.00;;;1.70;;
46745;SDS011;32493;50.514;9.678;2023-06-05T12:29:04;3.30;;;1.67;;
46745;SDS011;32493;50.514;9.678;2023-06-05T12:31:10;2.92;;;1.80;;
46745;SDS011;32493;50.514;9.678;2023-06-05T12:33:32;3.80;;;1.73;;
46745;SDS011;32493;50.514;9.678;2023-06-05T12:36:02;2.42;;;1.70;;
46745;SDS011;32493;50.514;9.678;2023-06-05T12:38:14;6.15;;;1.92;;
46745;SDS011;32493;50.514;9.678;2023-06-05T12:40:19;2.65;;;1.83;;
46745;SDS011;32493;50.514;9.678;2023-06-05T12:42:40;4.05;;;1.90;;
46745;SDS011;32493;50.514;9.678;2023-06-05T12:44:47;4.38;;;1.70;;
46745;SDS011;32493;50.514;9.678;2023-06-05T12:46:53;1.92;;;1.58;;
46745;SDS011;32493;50.514;9.678;2023-06-05T12:48:59;3.25;;;2.13;;
46745;SDS011;32493;50.514;9.678;2023-06-05T12:51:06;3.25;;;1.80;;
46745;SDS011;32493;50.514;9.678;2023-06-05T12:53:12;2.75;;;1.52;;
46745;SDS011;32493;50.514;9.678;2023-06-05T12:55:23;2.45;;;1.77;;
46745;SDS011;32493;50.514;9.678;2023-06-05T12:57:33;4.22;;;2.40;;
46745;SDS011;32493;50.514;9.678;2023-06-05T12:59:41;2.25;;;1.90;;
46745;SDS011;32493;50.514;9.678;2023-06-05T13:01:47;4.97;;;1.75;;
46745;SDS011;32493;50.514;9.678;2023-06-05T13:03:53;5.38;;;2.08;;
46745;SDS011;32493;50.514;9.678;2023-06-05T13:06:00;4.38;;;1.85;;
46745;SDS011;32493;50.514;9.678;2023-06-05T13:08:07;1.70;;;1.60;;
46745;SDS011;32493;50.514;9.678;2023-06-05T13:10:13;2.45;;;1.65;;
46745;SDS011;32493;50.514;9.678;2023-06-05T13:12:21;2.85;;;2.17;;
46745;SDS011;32493;50.514;9.678;2023-06-05T13:14:27;3.65;;;1.77;;
46745;SDS011;32493;50.514;9.678;2023-06-05T13:16:35;3.57;;;2.00;;
46745;SDS011;32493;50.514;9.678;2023-06-05T13:18:41;3.80;;;1.73;;
46745;SDS011;32493;50.514;9.678;2023-06-05T13:20:48;3.33;;;1.80;;
46745;SDS011;32493;50.514;9.678;2023-06-05T13:22:59;5.78;;;1.70;;
46745;SDS011;32493;50.514;9.678;2023-06-05T13:25:07;2.65;;;1.77;;